createdAt,value
2022-11-28T00:01:31.247Z,56.00
2022-11-28T00:03:58.949Z,54.15
2022-11-28T00:06:27.720Z,76.93
2022-11-28T00:08:55.890Z,62.67
2022-11-28T00:11:23.687Z,39.67
2022-11-28T00:13:51.246Z,41.60
2022-11-28T00:16:21.556Z,52.53
2022-11-28T00:18:50.237Z,47.50
2022-11-28T00:21:19.449Z,40.77
2022-11-28T00:23:47.920Z,37.43
2022-11-28T00:26:20.389Z,32.77
2022-11-28T00:28:48.324Z,40.57
2022-11-28T00:31:16.981Z,38.37
2022-11-28T00:33:44.728Z,41.33
2022-11-28T00:36:13.339Z,53.03
2022-11-28T00:38:41.340Z,43.93
2022-11-28T00:41:11.328Z,53.03
2022-11-28T00:43:38.931Z,55.03
2022-11-28T00:46:07.267Z,46.03
2022-11-28T00:48:35.587Z,49.50
2022-11-28T00:51:07.821Z,42.67
2022-11-28T00:53:35.585Z,41.43
2022-11-28T00:56:06.770Z,46.13
2022-11-28T00:58:34.691Z,44.87
2022-11-28T01:01:08.299Z,48.67
2022-11-28T01:03:35.993Z,58.03
2022-11-28T01:06:03.807Z,55.33
2022-11-28T01:08:31.416Z,53.77
2022-11-28T01:10:59.181Z,56.00
2022-11-28T01:13:26.750Z,56.47
2022-11-28T01:15:55.078Z,61.47
2022-11-28T01:18:22.654Z,61.70
2022-11-28T01:20:50.658Z,58.40
2022-11-28T01:23:19.215Z,60.63
2022-11-28T01:25:47.060Z,56.13
2022-11-28T01:28:14.587Z,51.50
2022-11-28T01:30:42.377Z,48.83
2022-11-28T01:33:09.945Z,48.87
2022-11-28T01:35:37.820Z,51.03
2022-11-28T01:38:05.383Z,48.30
2022-11-28T01:40:33.277Z,51.63
2022-11-28T01:43:00.890Z,52.77
2022-11-28T01:45:31.391Z,50.67
2022-11-28T01:48:00.909Z,48.30
2022-11-28T01:50:30.414Z,46.67
2022-11-28T01:53:00.082Z,45.17
2022-11-28T01:55:30.075Z,44.53
2022-11-28T01:57:58.161Z,50.90
2022-11-28T02:00:26.046Z,49.17
2022-11-28T02:02:56.923Z,51.83
2022-11-28T02:05:24.791Z,53.80
2022-11-28T02:07:53.036Z,54.67
2022-11-28T02:10:23.122Z,59.33
2022-11-28T02:13:00.913Z,62.97
2022-11-28T02:15:47.505Z,58.03
2022-11-28T02:18:27.400Z,75.77
2022-11-28T02:21:18.345Z,54.07
2022-11-28T02:24:04.620Z,64.73
2022-11-28T02:26:51.077Z,58.40
2022-11-28T02:29:37.714Z,53.50
2022-11-28T02:32:05.613Z,54.17
2022-11-28T02:34:57.583Z,61.03
2022-11-28T02:40:07.409Z,65.10
2022-11-28T02:42:41.834Z,68.30
2022-11-28T02:45:21.127Z,61.63
2022-11-28T02:47:51.090Z,69.17
2022-11-28T02:50:31.396Z,61.93
2022-11-28T02:53:10.732Z,64.90
2022-11-28T02:55:41.599Z,69.30
2022-11-28T02:58:10.796Z,70.15
2022-11-28T03:00:39.655Z,72.43
2022-11-28T03:03:16.609Z,67.37
2022-11-28T03:05:52.537Z,78.70
2022-11-28T03:08:39.420Z,84.40
2022-11-28T03:11:10.080Z,79.00
2022-11-28T03:13:41.127Z,91.13
2022-11-28T03:16:08.881Z,95.60
2022-11-28T03:18:39.302Z,99.03
2022-11-28T03:21:33.243Z,123.57
2022-11-28T03:24:03.632Z,98.90
2022-11-28T03:26:37.741Z,87.43
2022-11-28T03:29:11.754Z,92.63
2022-11-28T03:31:58.115Z,101.67
2022-11-28T03:34:29.474Z,101.20
2022-11-28T03:37:00.673Z,110.22
2022-11-28T03:39:34.418Z,93.68
2022-11-28T03:42:13.747Z,83.17
2022-11-28T03:45:03.894Z,98.87
2022-11-28T03:47:35.078Z,86.20
2022-11-28T03:50:05.657Z,89.72
2022-11-28T03:52:34.839Z,95.07
2022-11-28T03:55:04.864Z,113.50
2022-11-28T03:57:40.573Z,105.20
2022-11-28T04:00:10.621Z,127.27
2022-11-28T04:02:41.173Z,101.60
2022-11-28T04:05:24.689Z,167.97
2022-11-28T04:07:55.195Z,100.47
2022-11-28T04:10:30.646Z,100.07
2022-11-28T04:13:01.241Z,103.90
2022-11-28T04:15:47.849Z,100.50
2022-11-28T04:18:27.997Z,123.67
2022-11-28T04:21:11.057Z,117.83
2022-11-28T04:23:39.754Z,102.33
2022-11-28T04:26:14.272Z,117.30
2022-11-28T04:28:42.580Z,87.93
2022-11-28T04:31:10.751Z,112.57
2022-11-28T04:33:40.946Z,114.93
2022-11-28T04:36:09.352Z,104.33
2022-11-28T04:38:38.078Z,98.10
2022-11-28T04:41:07.386Z,94.40
2022-11-28T04:43:36.589Z,142.23
2022-11-28T04:46:13.834Z,122.03
2022-11-28T04:48:41.741Z,104.50
2022-11-28T04:51:28.591Z,98.30
2022-11-28T04:53:59.261Z,98.73
2022-11-28T04:56:34.320Z,141.15
2022-11-28T04:59:04.450Z,91.17
2022-11-28T05:01:33.292Z,121.40
2022-11-28T05:04:01.096Z,111.50
2022-11-28T05:06:33.494Z,118.33
2022-11-28T05:09:01.143Z,116.17
2022-11-28T05:11:29.018Z,76.53
2022-11-28T05:13:56.955Z,70.67
2022-11-28T05:16:25.114Z,85.37
2022-11-28T05:18:52.884Z,94.43
2022-11-28T05:21:21.082Z,288.43
2022-11-28T05:23:48.752Z,571.37
2022-11-28T05:26:18.499Z,316.33
2022-11-28T05:28:50.915Z,287.97
2022-11-28T05:31:20.463Z,122.57
2022-11-28T05:33:48.193Z,242.70
2022-11-28T05:36:16.578Z,116.23
2022-11-28T05:38:44.854Z,186.30
2022-11-28T05:41:38.980Z,209.30
2022-11-28T05:44:06.670Z,106.53
2022-11-28T05:46:34.505Z,76.80
2022-11-28T05:49:02.433Z,81.83
2022-11-28T05:51:30.273Z,82.13
2022-11-28T05:53:57.879Z,67.53
2022-11-28T05:56:25.815Z,82.57
2022-11-28T05:58:54.232Z,89.30
2022-11-28T06:01:24.096Z,83.97
2022-11-28T06:03:58.042Z,77.53
2022-11-28T06:06:30.435Z,79.33
2022-11-28T06:08:58.217Z,69.80
2022-11-28T06:11:27.287Z,130.47
2022-11-28T06:13:55.006Z,129.13
2022-11-28T06:16:24.812Z,84.10
2022-11-28T06:19:00.144Z,98.17
2022-11-28T06:21:29.440Z,65.70
2022-11-28T06:23:57.850Z,72.67
2022-11-28T06:26:26.597Z,67.47
2022-11-28T06:28:55.614Z,101.17
2022-11-28T06:31:24.653Z,70.13
2022-11-28T06:33:52.257Z,112.90
2022-11-28T06:36:20.975Z,64.17
2022-11-28T06:38:48.768Z,57.87
2022-11-28T06:41:18.343Z,79.10
2022-11-28T06:43:46.390Z,236.63
2022-11-28T06:46:19.226Z,112.90
2022-11-28T06:48:47.636Z,121.57
2022-11-28T06:51:15.845Z,105.50
2022-11-28T06:53:43.544Z,65.50
2022-11-28T06:56:14.106Z,73.57
2022-11-28T06:58:42.529Z,67.77
2022-11-28T07:01:20.707Z,70.70
2022-11-28T07:03:48.620Z,94.57
2022-11-28T07:06:17.461Z,52.73
2022-11-28T07:08:45.339Z,89.07
2022-11-28T07:11:17.463Z,63.03
2022-11-28T07:16:17.728Z,102.47
2022-11-28T07:18:45.661Z,55.87
2022-11-28T07:21:14.737Z,58.77
2022-11-28T07:23:43.381Z,68.17
2022-11-28T07:26:13.658Z,67.33
2022-11-28T07:28:41.833Z,69.57
2022-11-28T07:31:10.989Z,105.20
2022-11-28T07:33:39.494Z,82.43
2022-11-28T07:36:14.906Z,48.27
2022-11-28T07:38:42.629Z,58.33
2022-11-28T07:41:11.742Z,69.27
2022-11-28T07:43:40.145Z,82.47
2022-11-28T07:46:08.995Z,80.77
2022-11-28T07:48:37.764Z,132.03
2022-11-28T07:51:06.997Z,106.93
2022-11-28T07:53:35.067Z,115.10
2022-11-28T07:56:07.127Z,137.63
2022-11-28T07:58:35.384Z,130.88
2022-11-28T08:01:13.854Z,113.33
2022-11-28T08:03:42.049Z,107.73
2022-11-28T08:06:10.000Z,127.03
2022-11-28T08:08:38.114Z,166.03
2022-11-28T08:11:07.191Z,91.77
2022-11-28T08:13:35.410Z,99.57
2022-11-28T08:16:07.297Z,89.37
2022-11-28T08:18:35.559Z,86.47
2022-11-28T08:21:07.325Z,135.33
2022-11-28T08:23:35.573Z,87.38
2022-11-28T08:26:04.313Z,54.87
2022-11-28T08:28:31.962Z,63.15
2022-11-28T08:31:02.013Z,48.08
2022-11-28T08:33:29.765Z,42.58
2022-11-28T08:35:57.587Z,44.40
2022-11-28T08:38:25.230Z,36.22
2022-11-28T08:41:00.925Z,34.92
2022-11-28T08:43:28.583Z,33.25
2022-11-28T08:45:56.435Z,37.55
2022-11-28T08:48:24.061Z,32.15
2022-11-28T08:50:52.260Z,34.88
2022-11-28T08:53:19.936Z,33.70
2022-11-28T08:55:48.455Z,29.35
2022-11-28T08:58:16.153Z,36.92
2022-11-28T09:00:44.157Z,27.48
2022-11-28T09:03:16.392Z,28.48
2022-11-28T09:05:46.148Z,34.13
2022-11-28T09:08:14.743Z,27.55
2022-11-28T09:10:42.937Z,29.00
2022-11-28T09:13:11.412Z,29.60
2022-11-28T09:15:43.024Z,25.38
2022-11-28T09:18:12.141Z,29.35
2022-11-28T09:20:40.323Z,28.73
2022-11-28T09:23:08.919Z,28.35
2022-11-28T09:25:37.267Z,22.73
2022-11-28T09:28:05.063Z,25.80
2022-11-28T09:30:33.491Z,21.60
2022-11-28T09:33:01.177Z,22.33
2022-11-28T09:35:29.019Z,17.13
2022-11-28T09:37:58.404Z,24.02
2022-11-28T09:40:36.140Z,9.75
2022-11-28T09:43:04.981Z,31.15
2022-11-28T09:45:33.524Z,33.40
2022-11-28T09:48:13.647Z,29.83
2022-11-28T09:50:42.162Z,20.25
2022-11-28T09:53:16.769Z,22.33
2022-11-28T09:55:53.234Z,19.38
2022-11-28T09:58:39.797Z,21.42
2022-11-28T10:01:13.817Z,21.13
2022-11-28T10:03:41.584Z,15.57
2022-11-28T10:06:22.346Z,12.10
2022-11-28T10:08:50.009Z,10.30
2022-11-28T10:11:40.447Z,15.48
2022-11-28T10:14:08.782Z,30.35
2022-11-28T10:16:46.525Z,25.58
2022-11-28T10:19:46.168Z,29.10
2022-11-28T10:22:07.211Z,17.00
2022-11-28T10:24:37.737Z,12.25
2022-11-28T10:27:06.334Z,11.03
2022-11-28T10:29:39.536Z,11.75
2022-11-28T10:32:07.999Z,12.93
2022-11-28T10:34:35.589Z,11.05
2022-11-28T10:37:12.568Z,7.18
2022-11-28T10:39:43.909Z,7.60
2022-11-28T10:42:14.205Z,8.73
2022-11-28T10:45:09.132Z,8.30
2022-11-28T10:47:46.019Z,12.02
2022-11-28T10:50:30.833Z,7.50
2022-11-28T10:53:19.076Z,7.47
2022-11-28T10:56:00.681Z,7.30
2022-11-28T11:00:56.784Z,6.57
2022-11-28T11:03:29.650Z,8.98
2022-11-28T11:05:57.279Z,28.65
2022-11-28T11:08:26.645Z,9.57
2022-11-28T11:11:00.296Z,10.27
2022-11-28T11:13:29.999Z,7.43
2022-11-28T11:16:04.766Z,6.93
2022-11-28T11:18:34.971Z,9.05
2022-11-28T11:21:10.102Z,7.53
2022-11-28T11:23:38.521Z,7.22
2022-11-28T11:26:10.344Z,8.32
2022-11-28T11:28:43.277Z,7.85
2022-11-28T11:31:20.079Z,7.20
2022-11-28T11:33:49.247Z,6.82
2022-11-28T11:36:21.692Z,8.25
2022-11-28T11:38:49.646Z,7.65
2022-11-28T11:41:28.050Z,9.65
2022-11-28T11:43:56.498Z,7.97
2022-11-28T11:46:26.583Z,9.10
2022-11-28T11:48:54.489Z,8.88
2022-11-28T11:51:26.951Z,8.07
2022-11-28T11:54:06.320Z,11.43
2022-11-28T11:56:38.098Z,8.90
2022-11-28T12:01:35.232Z,8.65
2022-11-28T12:04:23.791Z,8.27
2022-11-28T12:06:56.075Z,9.27
2022-11-28T12:09:44.343Z,11.35
2022-11-28T12:12:18.771Z,10.45
2022-11-28T12:14:48.336Z,12.90
2022-11-28T12:20:30.880Z,24.73
2022-11-28T12:22:58.470Z,29.92
2022-11-28T12:25:31.104Z,15.27
2022-11-28T12:28:06.302Z,7.80
2022-11-28T12:30:54.531Z,13.52
2022-11-28T12:33:41.056Z,10.00
2022-11-28T12:36:23.159Z,12.68
2022-11-28T12:39:01.311Z,9.02
2022-11-28T12:41:32.432Z,10.63
2022-11-28T12:44:00.329Z,9.98
2022-11-28T12:46:31.281Z,8.73
2022-11-28T12:49:04.662Z,9.40
2022-11-28T12:51:41.747Z,9.68
2022-11-28T12:54:09.302Z,10.20
2022-11-28T12:56:37.366Z,9.05
2022-11-28T12:59:13.829Z,8.20
2022-11-28T13:01:47.150Z,14.25
2022-11-28T13:04:20.960Z,10.68
2022-11-28T13:06:57.838Z,8.73
2022-11-28T13:09:44.135Z,9.93
2022-11-28T13:12:12.102Z,14.63
2022-11-28T13:15:09.124Z,16.40
2022-11-28T13:17:46.133Z,14.20
2022-11-28T13:20:19.828Z,18.30
2022-11-28T13:23:01.790Z,16.23
2022-11-28T13:25:39.130Z,17.83
2022-11-28T13:28:19.389Z,44.75
2022-11-28T13:30:51.531Z,7.30
2022-11-28T13:33:25.806Z,8.00
2022-11-28T13:35:53.843Z,13.15
2022-11-28T13:38:36.346Z,15.35
2022-11-28T13:42:01.209Z,14.52
2022-11-28T13:44:24.774Z,83.25
2022-11-28T13:46:52.448Z,87.13
2022-11-28T13:49:22.065Z,31.80
2022-11-28T13:51:49.933Z,15.98
2022-11-28T13:54:18.106Z,42.38
2022-11-28T13:56:46.557Z,275.00
2022-11-28T13:59:20.260Z,48.08
2022-11-28T14:02:08.365Z,19.10
2022-11-28T14:04:36.307Z,20.77
2022-11-28T14:07:05.315Z,48.25
2022-11-28T14:09:47.630Z,29.92
2022-11-28T14:12:21.119Z,127.78
2022-11-28T14:14:52.750Z,23.60
2022-11-28T14:17:48.214Z,43.92
2022-11-28T14:20:25.079Z,28.50
2022-11-28T14:23:11.420Z,55.78
2022-11-28T14:25:43.561Z,218.55
2022-11-28T14:28:24.369Z,174.80
2022-11-28T14:30:52.874Z,109.85
2022-11-28T14:33:26.244Z,111.40
2022-11-28T14:35:54.144Z,58.22
2022-11-28T14:38:34.043Z,126.25
2022-11-28T14:41:11.901Z,151.70
2022-11-28T14:43:47.093Z,134.73
2022-11-28T14:46:19.458Z,130.25
2022-11-28T14:49:00.121Z,152.10
2022-11-28T14:51:46.714Z,144.63
2022-11-28T14:54:27.555Z,364.20
2022-11-28T14:56:59.780Z,227.60
2022-11-28T14:59:29.451Z,172.50
2022-11-28T15:02:14.184Z,141.07
2022-11-28T15:04:54.903Z,120.10
2022-11-28T15:07:23.190Z,156.95
2022-11-28T15:10:07.295Z,116.10
2022-11-28T15:12:35.721Z,217.37
2022-11-28T15:15:04.037Z,667.47
2022-11-28T15:17:52.195Z,173.37
2022-11-28T15:20:32.950Z,162.90
2022-11-28T15:23:01.565Z,245.13
2022-11-28T15:25:35.627Z,223.80
2022-11-28T15:28:16.976Z,148.47
2022-11-28T15:30:46.215Z,167.63
2022-11-28T15:33:14.503Z,156.07
2022-11-28T15:35:51.194Z,112.00
2022-11-28T15:38:19.344Z,272.73
2022-11-28T15:40:51.560Z,249.80
2022-11-28T15:43:20.274Z,224.87
2022-11-28T15:45:49.485Z,192.37
2022-11-28T15:48:27.252Z,218.87
2022-11-28T15:50:55.217Z,250.40
2022-11-28T15:53:23.362Z,160.93
2022-11-28T15:56:10.142Z,123.50
2022-11-28T15:58:38.467Z,182.10
2022-11-28T16:01:17.851Z,227.03
2022-11-28T16:04:06.955Z,572.60
2022-11-28T16:06:38.601Z,260.67
2022-11-28T16:09:07.928Z,184.40
2022-11-28T16:11:36.550Z,180.27
2022-11-28T16:14:09.272Z,137.57
2022-11-28T16:16:37.711Z,173.43
2022-11-28T16:19:07.039Z,220.40
2022-11-28T16:21:34.830Z,179.43
2022-11-28T16:24:04.151Z,224.87
2022-11-28T16:26:34.282Z,301.70
2022-11-28T16:29:04.527Z,332.90
2022-11-28T16:31:32.565Z,200.93
2022-11-28T16:34:01.244Z,165.60
2022-11-28T16:36:38.629Z,256.07
2022-11-28T16:39:12.150Z,259.93
2022-11-28T16:41:40.869Z,364.43
2022-11-28T16:44:13.310Z,334.57
2022-11-28T16:46:48.778Z,176.83
2022-11-28T16:49:35.016Z,119.27
2022-11-28T16:52:21.290Z,202.80
2022-11-28T16:54:50.314Z,124.73
2022-11-28T16:57:19.009Z,164.83
2022-11-28T16:59:47.585Z,195.07
2022-11-28T17:02:16.558Z,189.87
2022-11-28T17:04:45.443Z,118.30
2022-11-28T17:07:14.594Z,112.53
2022-11-28T17:09:43.321Z,250.03
2022-11-28T17:12:17.204Z,156.33
2022-11-28T17:14:45.176Z,111.67
2022-11-28T17:17:13.954Z,140.47
2022-11-28T17:19:42.608Z,122.40
2022-11-28T17:22:15.626Z,134.60
2022-11-28T17:24:43.651Z,172.67
2022-11-28T17:27:12.886Z,150.17
2022-11-28T17:29:41.107Z,153.27
2022-11-28T17:32:12.084Z,150.43
2022-11-28T17:34:42.039Z,226.27
2022-11-28T17:37:10.171Z,113.67
2022-11-28T17:39:38.325Z,208.50
2022-11-28T17:42:06.207Z,216.13
2022-11-28T17:44:36.153Z,177.93
2022-11-28T17:47:05.011Z,187.27
2022-11-28T17:49:33.891Z,184.83
2022-11-28T17:52:01.696Z,176.40
2022-11-28T17:54:30.177Z,170.00
2022-11-28T17:56:58.259Z,112.80
2022-11-28T17:59:27.078Z,119.10
2022-11-28T18:01:55.013Z,142.93
2022-11-28T18:04:26.687Z,149.68
2022-11-28T18:06:54.362Z,155.40
2022-11-28T18:09:22.344Z,188.17
2022-11-28T18:11:51.644Z,134.03
2022-11-28T18:14:20.054Z,135.57
2022-11-28T18:16:48.492Z,235.70
2022-11-28T18:19:16.478Z,282.20
2022-11-28T18:21:44.609Z,131.47
2022-11-28T18:24:12.522Z,211.80
2022-11-28T18:26:40.329Z,216.97
2022-11-28T18:29:09.049Z,254.63
2022-11-28T18:31:38.226Z,320.57
2022-11-28T18:34:07.844Z,141.73
2022-11-28T18:36:36.371Z,114.33
2022-11-28T18:39:06.711Z,65.77
2022-11-28T18:41:34.627Z,161.23
2022-11-28T18:44:04.653Z,154.53
2022-11-28T18:46:33.880Z,130.33
2022-11-28T18:49:01.981Z,131.60
2022-11-28T18:51:31.534Z,214.83
2022-11-28T18:53:59.917Z,159.17
2022-11-28T18:56:29.872Z,126.20
2022-11-28T18:58:59.256Z,103.60
2022-11-28T19:01:29.097Z,112.13
2022-11-28T19:04:07.432Z,168.33
2022-11-28T19:06:38.744Z,141.80
2022-11-28T19:09:09.423Z,132.25
2022-11-28T19:11:37.362Z,157.33
2022-11-28T19:14:06.751Z,199.77
2022-11-28T19:16:36.015Z,216.13
2022-11-28T19:19:06.369Z,190.53
2022-11-28T19:21:36.152Z,191.85
2022-11-28T19:24:04.354Z,111.10
2022-11-28T19:26:33.977Z,179.50
2022-11-28T19:29:02.753Z,278.57
2022-11-28T19:31:32.622Z,165.33
2022-11-28T19:34:05.107Z,156.27
2022-11-28T19:36:35.093Z,243.53
2022-11-28T19:39:04.253Z,179.13
2022-11-28T19:41:32.315Z,500.10
2022-11-28T19:44:00.871Z,376.70
2022-11-28T19:46:35.179Z,365.90
2022-11-28T19:49:05.461Z,340.40
2022-11-28T19:51:34.526Z,171.33
2022-11-28T19:54:03.925Z,247.83
2022-11-28T19:56:33.654Z,172.50
2022-11-28T19:59:01.774Z,248.83
2022-11-28T20:01:29.588Z,199.03
2022-11-28T20:03:58.808Z,406.47
2022-11-28T20:06:28.234Z,253.03
2022-11-28T20:08:58.366Z,274.30
2022-11-28T20:11:30.575Z,295.47
2022-11-28T20:14:04.886Z,216.67
2022-11-28T20:16:33.577Z,132.63
2022-11-28T20:19:01.864Z,138.27
2022-11-28T20:21:30.730Z,169.37
2022-11-28T20:24:02.601Z,161.27
2022-11-28T20:26:30.859Z,194.60
2022-11-28T20:28:58.786Z,139.00
2022-11-28T20:31:33.958Z,133.03
2022-11-28T20:34:02.678Z,122.23
2022-11-28T20:36:31.432Z,127.87
2022-11-28T20:38:59.990Z,143.10
2022-11-28T20:41:28.426Z,162.17
2022-11-28T20:43:56.413Z,145.73
2022-11-28T20:46:30.134Z,216.70
2022-11-28T20:48:59.650Z,181.33
2022-11-28T20:51:28.149Z,154.00
2022-11-28T20:53:57.202Z,124.40
2022-11-28T20:56:25.804Z,111.90
2022-11-28T20:58:53.699Z,330.43
2022-11-28T21:01:25.627Z,194.63
2022-11-28T21:03:53.706Z,178.33
2022-11-28T21:06:21.580Z,90.83
2022-11-28T21:08:49.574Z,129.13
2022-11-28T21:11:36.982Z,153.43
2022-11-28T21:14:06.395Z,167.63
2022-11-28T21:16:34.595Z,107.93
2022-11-28T21:19:07.685Z,100.07
2022-11-28T21:21:36.097Z,108.07
2022-11-28T21:24:05.897Z,244.13
2022-11-28T21:26:39.119Z,154.80
2022-11-28T21:29:10.351Z,185.17
2022-11-28T21:31:40.258Z,178.83
2022-11-28T21:34:08.258Z,371.43
2022-11-28T21:36:35.886Z,218.87
2022-11-28T21:39:03.810Z,254.27
2022-11-28T21:41:32.377Z,235.90
2022-11-28T21:44:01.013Z,216.03
2022-11-28T21:46:29.160Z,195.80
2022-11-28T21:48:58.459Z,303.73
2022-11-28T21:51:28.668Z,404.77
2022-11-28T21:53:57.691Z,281.23
2022-11-28T21:56:25.940Z,340.27
2022-11-28T21:58:54.765Z,185.40
2022-11-28T22:01:24.748Z,77.47
2022-11-28T22:03:59.046Z,234.53
2022-11-28T22:06:29.972Z,247.13
2022-11-28T22:08:58.315Z,124.30
2022-11-28T22:11:26.062Z,105.73
2022-11-28T22:13:54.069Z,124.87
2022-11-28T22:16:25.748Z,163.37
2022-11-28T22:18:55.031Z,109.30
2022-11-28T22:21:50.675Z,139.73
2022-11-28T22:24:12.123Z,205.13
2022-11-28T22:26:39.682Z,129.43
2022-11-28T22:29:07.801Z,89.60
2022-11-28T22:31:36.017Z,94.83
2022-11-28T22:34:04.264Z,95.20
2022-11-28T22:36:33.442Z,83.53
2022-11-28T22:39:02.611Z,77.90
2022-11-28T22:41:30.384Z,93.17
2022-11-28T22:44:01.184Z,76.03
2022-11-28T22:46:30.981Z,70.63
2022-11-28T22:49:00.927Z,91.77
2022-11-28T22:51:29.889Z,42.30
2022-11-28T22:53:58.908Z,54.23
2022-11-28T22:56:28.134Z,62.60
2022-11-28T22:58:56.180Z,67.23
2022-11-28T23:01:26.019Z,50.63
2022-11-28T23:03:54.537Z,70.07
2022-11-28T23:06:27.607Z,60.57
2022-11-28T23:08:56.755Z,44.43
2022-11-28T23:11:28.205Z,47.30
2022-11-28T23:13:56.740Z,51.43
2022-11-28T23:16:25.920Z,45.57
2022-11-28T23:18:56.378Z,54.97
2022-11-28T23:21:24.813Z,42.83
2022-11-28T23:23:52.767Z,68.20
2022-11-28T23:26:21.916Z,65.07
2022-11-28T23:28:49.924Z,43.77
2022-11-28T23:31:22.327Z,42.63
2022-11-28T23:33:50.652Z,40.57
2022-11-28T23:36:19.144Z,45.30
2022-11-28T23:38:48.255Z,33.43
2022-11-28T23:41:15.821Z,40.27
2022-11-28T23:43:43.910Z,45.77
2022-11-28T23:46:12.010Z,40.57
2022-11-28T23:48:40.130Z,40.57
2022-11-28T23:51:08.446Z,35.87
2022-11-28T23:53:36.957Z,46.90
2022-11-28T23:56:06.003Z,47.87
2022-11-28T23:58:37.326Z,39.80
